createdAt,value
2022-10-17T00:03:43.932Z,20.60
2022-10-17T00:08:46.281Z,19.95
2022-10-17T00:13:50.163Z,21.80
2022-10-17T00:18:52.574Z,18.42
2022-10-17T00:23:55.205Z,20.70
2022-10-17T00:28:57.665Z,19.80
2022-10-17T00:34:00.007Z,20.60
2022-10-17T00:39:04.464Z,20.10
2022-10-17T00:44:28.491Z,21.30
2022-10-17T00:49:34.342Z,21.15
2022-10-17T00:54:40.566Z,23.30
2022-10-17T00:59:43.621Z,18.83
2022-10-17T01:04:48.429Z,19.40
2022-10-17T01:09:50.832Z,19.90
2022-10-17T01:14:58.982Z,20.50
2022-10-17T01:20:22.976Z,18.80
2022-10-17T01:25:29.761Z,20.35
2022-10-17T01:30:50.798Z,20.73
2022-10-17T01:36:06.694Z,24.55
2022-10-17T01:41:18.095Z,24.55
2022-10-17T01:46:28.252Z,25.55
2022-10-17T01:51:38.847Z,21.83
2022-10-17T01:56:42.167Z,18.73
2022-10-17T02:01:47.228Z,21.25
2022-10-17T02:06:49.587Z,22.42
2022-10-17T02:12:22.955Z,27.77
2022-10-17T02:17:47.498Z,25.83
2022-10-17T02:22:52.166Z,24.40
2022-10-17T02:28:03.685Z,20.88
2022-10-17T02:33:10.618Z,17.88
2022-10-17T02:38:13.727Z,17.57
2022-10-17T02:43:18.284Z,21.55
2022-10-17T02:48:42.536Z,19.13
2022-10-17T02:54:03.150Z,22.52
2022-10-17T02:59:08.010Z,36.50
2022-10-17T03:04:13.867Z,41.58
2022-10-17T03:14:20.397Z,39.88
2022-10-17T03:19:22.892Z,30.52
2022-10-17T03:24:26.884Z,23.40
2022-10-17T03:29:29.576Z,22.23
2022-10-17T03:34:32.239Z,21.30
2022-10-17T03:39:34.618Z,22.33
2022-10-17T03:44:36.987Z,19.75
2022-10-17T03:49:40.193Z,19.50
2022-10-17T03:54:42.556Z,25.65
2022-10-17T03:59:44.971Z,27.00
2022-10-17T04:04:51.927Z,23.83
2022-10-17T04:09:54.441Z,28.23
2022-10-17T04:14:57.910Z,28.02
2022-10-17T04:20:01.275Z,26.15
2022-10-17T04:25:04.521Z,29.02
2022-10-17T04:30:13.412Z,34.90
2022-10-17T04:35:16.626Z,28.67
2022-10-17T04:40:23.559Z,26.25
2022-10-17T04:45:27.954Z,36.83
2022-10-17T04:50:34.059Z,22.45
2022-10-17T04:56:01.659Z,26.10
2022-10-17T05:01:13.479Z,33.83
2022-10-17T05:06:20.576Z,25.35
2022-10-17T05:11:38.099Z,34.55
2022-10-17T05:16:40.806Z,24.30
2022-10-17T05:21:43.673Z,29.25
2022-10-17T05:26:45.986Z,34.00
2022-10-17T05:31:48.405Z,39.38
2022-10-17T05:36:50.681Z,33.17
2022-10-17T05:41:56.412Z,44.30
2022-10-17T05:46:59.273Z,49.83
2022-10-17T05:52:02.911Z,66.70
2022-10-17T05:57:10.895Z,33.72
2022-10-17T06:02:15.389Z,41.97
2022-10-17T06:07:18.051Z,47.83
2022-10-17T06:12:20.956Z,96.05
2022-10-17T06:17:24.045Z,70.40
2022-10-17T06:22:26.609Z,39.60
2022-10-17T06:27:29.176Z,45.30
2022-10-17T06:32:32.468Z,83.22
2022-10-17T06:37:37.122Z,49.63
2022-10-17T06:42:44.302Z,36.75
2022-10-17T06:48:00.567Z,34.43
2022-10-17T06:53:16.719Z,61.10
2022-10-17T06:58:43.366Z,49.08
2022-10-17T07:04:21.015Z,40.30
2022-10-17T07:09:25.139Z,38.97
2022-10-17T07:14:32.163Z,37.58
2022-10-17T07:19:35.282Z,46.42
2022-10-17T07:24:38.309Z,37.05
2022-10-17T07:30:02.752Z,40.35
2022-10-17T07:35:12.151Z,32.60
2022-10-17T07:40:15.858Z,38.92
2022-10-17T07:45:19.226Z,37.33
2022-10-17T07:50:22.624Z,33.33
2022-10-17T07:55:24.927Z,26.80
2022-10-17T08:00:27.988Z,29.92
2022-10-17T08:05:31.246Z,33.60
2022-10-17T08:10:33.614Z,33.10
2022-10-17T08:15:39.004Z,33.22
2022-10-17T08:20:42.397Z,27.40
2022-10-17T08:25:44.686Z,25.45
2022-10-17T08:30:46.997Z,30.77
2022-10-17T08:35:49.304Z,33.25
2022-10-17T08:40:51.627Z,33.08
2022-10-17T08:46:03.276Z,26.35
2022-10-17T08:51:34.874Z,28.80
2022-10-17T08:56:49.180Z,22.58
2022-10-17T09:02:20.133Z,27.00
2022-10-17T09:07:32.579Z,25.38
2022-10-17T09:12:44.737Z,20.50
2022-10-17T09:17:56.917Z,17.35
2022-10-17T09:23:05.938Z,14.13
2022-10-17T09:28:28.808Z,15.20
2022-10-17T09:33:53.264Z,11.25
2022-10-17T09:38:58.319Z,10.82
2022-10-17T09:44:14.654Z,12.40
2022-10-17T09:49:20.391Z,19.45
2022-10-17T09:54:27.442Z,11.68
2022-10-17T09:59:40.677Z,13.48
2022-10-17T10:05:06.414Z,13.13
2022-10-17T10:10:27.614Z,16.02
2022-10-17T10:15:34.124Z,14.07
2022-10-17T10:20:38.111Z,16.85
2022-10-17T10:25:50.827Z,14.98
2022-10-17T10:30:53.699Z,14.80
2022-10-17T10:36:02.195Z,13.27
2022-10-17T10:41:07.860Z,10.73
2022-10-17T10:46:20.630Z,13.63
2022-10-17T10:51:26.072Z,14.48
2022-10-17T10:56:55.246Z,15.07
2022-10-17T11:02:11.569Z,13.93
2022-10-17T11:07:19.466Z,13.40
2022-10-17T11:12:26.940Z,15.13
2022-10-17T11:22:42.052Z,13.25
2022-10-17T11:27:44.413Z,17.08
2022-10-17T11:32:54.232Z,15.85
2022-10-17T11:38:22.735Z,16.40
2022-10-17T11:43:46.175Z,18.45
2022-10-17T11:49:20.150Z,15.32
2022-10-17T11:54:32.066Z,18.85
2022-10-17T11:59:34.256Z,17.33
2022-10-17T12:05:02.373Z,17.17
2022-10-17T12:10:46.685Z,18.65
2022-10-17T12:15:48.934Z,18.67
2022-10-17T12:20:58.861Z,17.45
2022-10-17T12:26:06.632Z,18.48
2022-10-17T12:31:23.217Z,19.08
2022-10-17T12:36:28.372Z,20.63
2022-10-17T12:41:39.662Z,19.48
2022-10-17T12:46:52.923Z,20.23
2022-10-17T12:52:07.464Z,20.27
2022-10-17T12:57:22.873Z,22.45
2022-10-17T13:02:28.151Z,18.75
2022-10-17T13:07:31.045Z,21.17
2022-10-17T13:12:40.289Z,21.52
2022-10-17T13:17:43.988Z,22.75
2022-10-17T13:22:46.360Z,21.63
2022-10-17T13:27:49.515Z,29.02
2022-10-17T13:32:52.099Z,19.85
2022-10-17T13:37:55.990Z,24.02
2022-10-17T13:43:02.133Z,21.90
2022-10-17T13:48:16.766Z,22.42
2022-10-17T13:53:26.535Z,19.70
2022-10-17T13:58:49.820Z,19.05
2022-10-17T14:04:07.238Z,20.42
2022-10-17T14:09:27.007Z,19.38
2022-10-17T14:14:32.124Z,19.10
2022-10-17T14:19:40.046Z,22.45
2022-10-17T14:24:43.637Z,23.02
2022-10-17T14:29:53.574Z,27.25
2022-10-17T14:35:05.573Z,25.88
2022-10-17T14:40:24.873Z,22.08
2022-10-17T14:45:33.962Z,24.52
2022-10-17T14:50:36.701Z,22.30
2022-10-17T14:55:41.150Z,22.13
2022-10-17T15:00:43.501Z,26.45
2022-10-17T15:05:46.849Z,25.90
2022-10-17T15:10:49.906Z,24.65
2022-10-17T15:15:52.676Z,23.98
2022-10-17T15:21:04.631Z,26.83
2022-10-17T15:26:38.125Z,24.58
2022-10-17T15:31:40.887Z,25.73
2022-10-17T15:36:49.909Z,23.20
2022-10-17T15:41:52.209Z,26.77
2022-10-17T15:46:54.881Z,23.13
2022-10-17T15:51:57.149Z,24.45
2022-10-17T15:56:59.471Z,24.42
2022-10-17T16:02:01.778Z,23.63
2022-10-17T16:07:04.284Z,27.00
2022-10-17T16:12:11.733Z,29.45
2022-10-17T16:22:28.712Z,27.48
2022-10-17T16:27:31.315Z,26.92
2022-10-17T16:32:34.137Z,32.50
2022-10-17T16:37:36.588Z,25.52
2022-10-17T16:42:39.155Z,24.58
2022-10-17T16:47:41.481Z,30.88
2022-10-17T16:52:43.980Z,26.45
2022-10-17T16:57:48.957Z,27.58
2022-10-17T17:02:51.718Z,29.83
2022-10-17T17:07:55.838Z,30.73
2022-10-17T17:12:58.350Z,35.40
2022-10-17T17:18:05.358Z,29.90
2022-10-17T17:28:18.377Z,32.55
2022-10-17T17:33:20.818Z,30.38
2022-10-17T17:38:23.330Z,34.85
2022-10-17T17:43:25.986Z,33.08
2022-10-17T17:48:28.391Z,30.05
2022-10-17T17:53:30.832Z,35.65
2022-10-17T17:58:33.650Z,29.73
2022-10-17T18:03:35.898Z,39.22
2022-10-17T18:08:38.523Z,32.97
2022-10-17T18:13:40.895Z,34.85
2022-10-17T18:18:45.460Z,34.15
2022-10-17T18:23:48.994Z,53.03
2022-10-17T18:28:51.540Z,33.58
2022-10-17T18:33:55.724Z,44.30
2022-10-17T18:38:59.766Z,35.20
2022-10-17T18:44:05.652Z,40.17
2022-10-17T18:49:19.770Z,42.88
2022-10-17T18:54:22.554Z,29.75
2022-10-17T18:59:24.824Z,41.42
2022-10-17T19:04:27.209Z,41.75
2022-10-17T19:09:29.633Z,31.55
2022-10-17T19:14:31.921Z,30.85
2022-10-17T19:19:34.702Z,30.73
2022-10-17T19:24:37.000Z,32.25
2022-10-17T19:29:43.581Z,31.50
2022-10-17T19:34:45.926Z,31.17
2022-10-17T19:39:49.620Z,35.13
2022-10-17T19:44:51.882Z,34.95
2022-10-17T19:49:54.299Z,34.53
2022-10-17T19:54:56.654Z,34.08
2022-10-17T19:59:58.927Z,30.73
2022-10-17T20:05:17.652Z,33.00
2022-10-17T20:10:20.751Z,30.52
2022-10-17T20:15:23.105Z,29.30
2022-10-17T20:20:25.613Z,30.30
2022-10-17T20:25:27.954Z,30.70
2022-10-17T20:30:30.290Z,31.98
2022-10-17T20:35:32.582Z,42.40
2022-10-17T20:40:35.754Z,31.90
2022-10-17T20:45:51.442Z,35.13
2022-10-17T20:50:54.522Z,36.40
2022-10-17T20:56:21.854Z,32.75
2022-10-17T21:01:25.285Z,30.10
2022-10-17T21:06:27.760Z,32.97
2022-10-17T21:11:30.753Z,32.00
2022-10-17T21:16:35.550Z,35.53
2022-10-17T21:21:39.430Z,32.35
2022-10-17T21:26:43.405Z,31.92
2022-10-17T21:31:45.790Z,34.00
2022-10-17T21:36:48.691Z,32.42
2022-10-17T21:41:51.685Z,33.53
2022-10-17T21:46:55.154Z,35.08
2022-10-17T21:51:58.002Z,34.50
2022-10-17T21:57:00.282Z,43.30
2022-10-17T22:02:02.598Z,37.13
2022-10-17T22:07:05.168Z,36.45
2022-10-17T22:12:07.541Z,38.85
2022-10-17T22:17:09.895Z,38.92
2022-10-17T22:22:12.354Z,35.30
2022-10-17T22:27:14.942Z,38.60
2022-10-17T22:32:20.119Z,33.10
2022-10-17T22:37:24.851Z,39.42
2022-10-17T22:42:31.515Z,37.97
2022-10-17T22:47:34.050Z,30.92
2022-10-17T22:52:36.322Z,36.65
2022-10-17T22:57:38.784Z,35.53
2022-10-17T23:02:41.040Z,37.72
2022-10-17T23:07:43.360Z,37.72
2022-10-17T23:12:45.727Z,36.72
2022-10-17T23:17:48.006Z,36.42
2022-10-17T23:22:50.334Z,35.92
2022-10-17T23:27:52.706Z,35.85
2022-10-17T23:32:55.055Z,39.30
2022-10-17T23:37:57.357Z,38.63
2022-10-17T23:42:59.731Z,34.55
2022-10-17T23:48:02.434Z,36.92
2022-10-17T23:53:04.771Z,36.67
2022-10-17T23:58:07.160Z,38.40
